Time;durP1;ratioP1;P1;durP2;ratioP2;P2;SDS_P1;SDS_P2;PMS_P1;PMS_P2;Temp;Humidity;BMP_temperature;BMP_pressure;BME280_temperature;BME280_humidity;BME280_pressure;Samples;Min_cycle;Max_cycle;Signal;HPM_P1;HPM_P2
2022/08/18 00:01:40;;;;;;;15.10;13.55;;;;;;;;;;4997902;28;20217;-73
2022/08/18 00:04:09;;;;;;;14.85;13.57;;;;;;;;;;4997882;28;20209;-74
2022/08/18 00:06:58;;;;;;;14.23;12.90;;;;;;;;;;4978627;28;20229;-74
2022/08/18 00:09:26;;;;;;;14.82;13.43;;;;;;;;;;4988816;28;20221;-74
2022/08/18 00:12:02;;;;;;;15.70;14.20;;;;;;;;;;4997413;28;20233;-74
2022/08/18 00:14:30;;;;;;;14.88;13.57;;;;;;;;;;4997656;28;20705;-74
2022/08/18 00:16:59;;;;;;;15.88;14.48;;;;;;;;;;4998155;28;20236;-75
2022/08/18 00:19:27;;;;;;;15.13;13.55;;;;;;;;;;4997882;28;20682;-75
2022/08/18 00:22:16;;;;;;;14.75;13.30;;;;;;;;;;4997315;28;20196;-74
2022/08/18 00:24:45;;;;;;;15.25;13.95;;;;;;;;;;4997057;28;20293;-75
2022/08/18 00:27:20;;;;;;;14.80;13.60;;;;;;;;;;4997289;28;20185;-75
2022/08/18 00:29:51;;;;;;;15.32;13.93;;;;;;;;;;4997283;28;20259;-75
2022/08/18 00:32:21;;;;;;;15.98;14.52;;;;;;;;;;4997378;28;20224;-75
2022/08/18 00:34:49;;;;;;;16.58;15.15;;;;;;;;;;4997576;28;20208;-75
2022/08/18 00:37:18;;;;;;;16.00;14.50;;;;;;;;;;4997611;28;20216;-75
2022/08/18 00:39:46;;;;;;;15.32;13.95;;;;;;;;;;4997506;28;20235;-75
2022/08/18 00:42:19;;;;;;;16.92;15.45;;;;;;;;;;4997015;28;20210;-75
2022/08/18 00:44:58;;;;;;;16.55;14.95;;;;;;;;;;5004580;28;20216;-75
2022/08/18 00:47:28;;;;;;;16.10;14.77;;;;;;;;;;4996051;28;20224;-75
2022/08/18 00:50:12;;;;;;;17.05;15.50;;;;;;;;;;4994422;28;20225;-75
2022/08/18 00:52:45;;;;;;;17.42;15.80;;;;;;;;;;4996762;28;20189;-75
2022/08/18 00:55:13;;;;;;;16.73;15.23;;;;;;;;;;4996529;28;20194;-75
2022/08/18 00:57:43;;;;;;;17.00;15.55;;;;;;;;;;4997158;28;20209;-75
2022/08/18 01:00:13;;;;;;;15.65;14.35;;;;;;;;;;4996933;28;20581;-75
2022/08/18 01:02:44;;;;;;;18.40;16.70;;;;;;;;;;4996973;28;20209;-75
2022/08/18 01:05:17;;;;;;;16.73;15.30;;;;;;;;;;4996922;28;20747;-75
2022/08/18 01:07:47;;;;;;;16.67;15.00;;;;;;;;;;4996591;28;20190;-75
2022/08/18 01:10:17;;;;;;;16.13;14.63;;;;;;;;;;4996259;28;20225;-75
2022/08/18 01:12:49;;;;;;;17.77;16.10;;;;;;;;;;4996566;28;20205;-75
2022/08/18 01:15:19;;;;;;;19.73;17.92;;;;;;;;;;4995002;28;20217;-75
2022/08/18 01:23:33;;;;;;;21.55;19.58;;;;;;;;;;4996173;28;20236;-74
2022/08/18 01:26:02;;;;;;;22.85;20.73;;;;;;;;;;4996840;28;20554;-74
2022/08/18 01:28:32;;;;;;;20.95;19.02;;;;;;;;;;4996197;28;20225;-75
2022/08/18 01:31:01;;;;;;;21.92;19.92;;;;;;;;;;4996270;28;20213;-74
2022/08/18 01:33:31;;;;;;;23.20;20.92;;;;;;;;;;4996137;28;20220;-75
2022/08/18 01:36:02;;;;;;;21.48;19.45;;;;;;;;;;4995834;28;20280;-75
2022/08/18 01:38:31;;;;;;;21.45;19.35;;;;;;;;;;4996061;28;20287;-75
2022/08/18 01:41:01;;;;;;;21.45;19.48;;;;;;;;;;4996118;28;20229;-75
2022/08/18 01:43:49;;;;;;;21.02;19.02;;;;;;;;;;4995180;28;20256;-75
2022/08/18 01:46:18;;;;;;;21.85;19.85;;;;;;;;;;4995929;28;20216;-75
2022/08/18 01:48:48;;;;;;;22.13;19.88;;;;;;;;;;4995715;28;20240;-75
2022/08/18 01:51:18;;;;;;;21.65;19.45;;;;;;;;;;4995972;28;20575;-75
2022/08/18 01:53:47;;;;;;;21.75;19.67;;;;;;;;;;4995488;28;20193;-74
2022/08/18 01:56:17;;;;;;;21.55;19.63;;;;;;;;;;4995370;28;20201;-75
2022/08/18 01:58:46;;;;;;;21.02;19.02;;;;;;;;;;4995844;28;20690;-75
2022/08/18 02:01:15;;;;;;;22.20;20.20;;;;;;;;;;4995559;28;20305;-75
2022/08/18 02:03:47;;;;;;;20.65;18.58;;;;;;;;;;4994970;28;20273;-75
2022/08/18 02:06:17;;;;;;;21.13;19.13;;;;;;;;;;5001937;28;20255;-74
2022/08/18 02:08:59;;;;;;;20.33;18.55;;;;;;;;;;5014498;28;20220;-74
2022/08/18 02:11:29;;;;;;;21.67;19.48;;;;;;;;;;5015320;28;20200;-75
2022/08/18 02:13:58;;;;;;;22.90;20.73;;;;;;;;;;5008673;28;20682;-74
2022/08/18 02:16:26;;;;;;;22.77;20.45;;;;;;;;;;4995147;28;20658;-75
2022/08/18 02:18:55;;;;;;;23.42;21.23;;;;;;;;;;4994936;28;20229;-73
2022/08/18 02:21:23;;;;;;;24.80;22.30;;;;;;;;;;4995047;28;20710;-76
2022/08/18 02:23:51;;;;;;;24.90;22.50;;;;;;;;;;4994753;28;20209;-74
2022/08/18 02:26:22;;;;;;;25.88;23.27;;;;;;;;;;4994727;28;20716;-75
2022/08/18 02:28:52;;;;;;;27.08;24.30;;;;;;;;;;4994294;28;20231;-75
2022/08/18 02:31:22;;;;;;;28.13;25.23;;;;;;;;;;4994577;28;20186;-76
2022/08/18 02:33:50;;;;;;;27.77;25.17;;;;;;;;;;4994324;28;20216;-76
2022/08/18 02:36:20;;;;;;;29.02;26.17;;;;;;;;;;4994645;28;20580;-75
2022/08/18 02:38:53;;;;;;;28.95;26.02;;;;;;;;;;4993928;28;20229;-76
2022/08/18 02:41:27;;;;;;;29.27;26.38;;;;;;;;;;4994308;28;20208;-76
2022/08/18 02:43:58;;;;;;;30.38;27.05;;;;;;;;;;4994364;28;20244;-76
2022/08/18 02:46:27;;;;;;;30.02;27.05;;;;;;;;;;4995454;28;20198;-75
2022/08/18 02:48:57;;;;;;;29.55;26.52;;;;;;;;;;4994480;28;20229;-76
2022/08/18 02:51:26;;;;;;;30.40;27.50;;;;;;;;;;4994502;28;20208;-76
2022/08/18 02:53:57;;;;;;;30.30;27.25;;;;;;;;;;4994601;28;20200;-76
2022/08/18 02:56:28;;;;;;;29.80;26.90;;;;;;;;;;4994289;28;20225;-74
2022/08/18 02:59:11;;;;;;;30.33;27.33;;;;;;;;;;4994572;28;20229;-75
2022/08/18 03:01:41;;;;;;;29.63;26.80;;;;;;;;;;4994635;28;20586;-76
2022/08/18 03:04:11;;;;;;;29.63;26.77;;;;;;;;;;4994552;28;20209;-75
2022/08/18 03:06:39;;;;;;;27.55;24.83;;;;;;;;;;4994694;28;20575;-76
2022/08/18 03:09:09;;;;;;;29.42;26.45;;;;;;;;;;4994489;28;20606;-75
2022/08/18 03:11:38;;;;;;;27.88;25.17;;;;;;;;;;4994011;28;20701;-76
2022/08/18 03:14:07;;;;;;;29.38;26.50;;;;;;;;;;4994267;28;20213;-75
2022/08/18 03:16:40;;;;;;;29.23;26.40;;;;;;;;;;4994359;28;20193;-75
2022/08/18 03:19:22;;;;;;;28.92;25.92;;;;;;;;;;4994026;28;20698;-75
2022/08/18 03:21:51;;;;;;;27.55;25.00;;;;;;;;;;4994135;28;20225;-75
2022/08/18 03:24:20;;;;;;;28.30;25.60;;;;;;;;;;4994103;28;20201;-75
2022/08/18 03:26:51;;;;;;;29.13;26.23;;;;;;;;;;5004279;28;20594;-75
2022/08/18 03:29:20;;;;;;;28.45;25.52;;;;;;;;;;4994083;28;20229;-76
2022/08/18 03:31:50;;;;;;;28.35;25.33;;;;;;;;;;4994144;28;20571;-75
2022/08/18 03:34:20;;;;;;;31.25;28.10;;;;;;;;;;4994200;28;20552;-76
2022/08/18 03:36:49;;;;;;;31.58;27.38;;;;;;;;;;4993798;28;20204;-75
2022/08/18 03:39:18;;;;;;;33.40;29.95;;;;;;;;;;4993996;28;20248;-76
2022/08/18 03:41:47;;;;;;;33.03;29.63;;;;;;;;;;4994149;28;20228;-76
2022/08/18 03:44:29;;;;;;;34.40;30.75;;;;;;;;;;4994132;28;20654;-76
2022/08/18 03:47:00;;;;;;;32.67;29.10;;;;;;;;;;4994409;28;20285;-76
2022/08/18 03:49:28;;;;;;;33.78;30.38;;;;;;;;;;4994034;28;20246;-76
2022/08/18 03:51:59;;;;;;;33.05;29.55;;;;;;;;;;4993727;28;20201;-76
2022/08/18 03:54:28;;;;;;;33.03;29.58;;;;;;;;;;4994082;28;20236;-75
2022/08/18 03:56:57;;;;;;;30.77;27.48;;;;;;;;;;4993566;28;20212;-75
2022/08/18 03:59:27;;;;;;;31.75;28.42;;;;;;;;;;4993823;28;20236;-75
2022/08/18 04:01:55;;;;;;;33.22;29.70;;;;;;;;;;4993506;28;20225;-76
2022/08/18 04:04:26;;;;;;;34.42;30.73;;;;;;;;;;4993562;28;20303;-76
2022/08/18 04:06:55;;;;;;;33.38;29.88;;;;;;;;;;4994091;28;20190;-76
2022/08/18 04:09:26;;;;;;;33.67;29.40;;;;;;;;;;4993164;28;20232;-75
2022/08/18 04:11:54;;;;;;;33.80;30.33;;;;;;;;;;4993593;28;20630;-75
2022/08/18 04:14:24;;;;;;;35.85;31.33;;;;;;;;;;4993909;28;20218;-75
2022/08/18 04:16:53;;;;;;;33.22;29.67;;;;;;;;;;4993817;28;20209;-75
2022/08/18 04:19:22;;;;;;;33.30;29.73;;;;;;;;;;4993992;28;20229;-75
2022/08/18 04:21:57;;;;;;;33.42;29.83;;;;;;;;;;4993808;28;20596;-75
2022/08/18 04:24:27;;;;;;;32.28;28.98;;;;;;;;;;4995284;28;20186;-75
2022/08/18 04:27:00;;;;;;;36.88;30.75;;;;;;;;;;4997692;28;20195;-75
2022/08/18 04:29:28;;;;;;;34.67;30.95;;;;;;;;;;4997421;28;20237;-75
2022/08/18 04:31:57;;;;;;;32.30;28.80;;;;;;;;;;4997982;28;20684;-75
2022/08/18 04:34:26;;;;;;;31.33;28.03;;;;;;;;;;4997258;28;20205;-74
2022/08/18 04:36:54;;;;;;;33.35;29.92;;;;;;;;;;4997075;28;20216;-75
2022/08/18 04:39:24;;;;;;;31.98;28.67;;;;;;;;;;4997147;28;20229;-75
2022/08/18 04:42:08;;;;;;;32.30;28.93;;;;;;;;;;4996875;28;20224;-74
2022/08/18 04:44:38;;;;;;;32.30;28.93;;;;;;;;;;4997440;28;20209;-75
2022/08/18 04:47:07;;;;;;;33.78;30.17;;;;;;;;;;4997224;28;20208;-75
2022/08/18 04:49:36;;;;;;;31.75;28.42;;;;;;;;;;4996583;28;20232;-75
2022/08/18 04:55:10;;;;;;;32.00;28.15;;;;;;;;;;4997161;28;20204;-75
2022/08/18 04:57:41;;;;;;;34.17;29.77;;;;;;;;;;4997510;28;20197;-75
2022/08/18 05:00:12;;;;;;;35.70;31.30;;;;;;;;;;4996643;28;20232;-75
2022/08/18 05:02:40;;;;;;;34.63;30.63;;;;;;;;;;4996914;28;20205;-75
2022/08/18 05:05:09;;;;;;;35.70;30.58;;;;;;;;;;4997123;28;20209;-75
2022/08/18 05:07:43;;;;;;;35.28;31.40;;;;;;;;;;4996362;28;20730;-75
2022/08/18 05:10:16;;;;;;;37.38;32.25;;;;;;;;;;4996673;28;20276;-74
2022/08/18 05:12:47;;;;;;;36.78;32.92;;;;;;;;;;4996601;28;20193;-74
2022/08/18 05:15:16;;;;;;;40.60;32.33;;;;;;;;;;5012904;28;20209;-75
2022/08/18 05:17:45;;;;;;;37.08;32.22;;;;;;;;;;5016490;28;20204;-75
2022/08/18 05:20:18;;;;;;;41.37;34.53;;;;;;;;;;5015641;28;20252;-74
2022/08/18 05:22:46;;;;;;;45.78;36.92;;;;;;;;;;5015982;28;20705;-74
2022/08/18 05:25:16;;;;;;;40.83;36.17;;;;;;;;;;5015914;28;20647;-75
2022/08/18 05:27:44;;;;;;;39.95;34.50;;;;;;;;;;5015588;28;20223;-75
2022/08/18 05:30:14;;;;;;;38.83;33.55;;;;;;;;;;5015469;28;20231;-75
2022/08/18 05:32:43;;;;;;;39.33;35.03;;;;;;;;;;5015449;28;20208;-74
2022/08/18 05:35:20;;;;;;;40.75;36.35;;;;;;;;;;5015245;28;20235;-74
2022/08/18 05:37:56;;;;;;;46.28;38.55;;;;;;;;;;5014038;28;20189;-74
2022/08/18 05:40:28;;;;;;;41.13;36.70;;;;;;;;;;4995981;28;20232;-75
2022/08/18 05:42:57;;;;;;;43.92;37.35;;;;;;;;;;4995916;28;20217;-76
2022/08/18 05:45:26;;;;;;;41.92;36.58;;;;;;;;;;4995794;28;20209;-75
2022/08/18 05:47:58;;;;;;;47.10;39.88;;;;;;;;;;4995356;28;20206;-76
2022/08/18 05:50:28;;;;;;;54.90;43.92;;;;;;;;;;4995431;28;20237;-76
2022/08/18 05:52:58;;;;;;;66.30;48.08;;;;;;;;;;4996097;28;20201;-76
2022/08/18 05:58:19;;;;;;;61.88;47.78;;;;;;;;;;4995677;28;20196;-76
2022/08/18 06:00:52;;;;;;;60.75;47.30;;;;;;;;;;4995597;28;20280;-76
2022/08/18 06:03:28;;;;;;;66.75;50.95;;;;;;;;;;4995304;28;20206;-76
2022/08/18 06:06:13;;;;;;;65.82;50.30;;;;;;;;;;4995210;28;20243;-75
2022/08/18 06:08:44;;;;;;;68.40;50.78;;;;;;;;;;4995042;28;20275;-75
2022/08/18 06:11:14;;;;;;;71.78;51.42;;;;;;;;;;4995317;28;20217;-75
2022/08/18 06:13:50;;;;;;;70.05;52.22;;;;;;;;;;4995732;28;20223;-76
2022/08/18 06:16:31;;;;;;;71.15;52.20;;;;;;;;;;4995393;28;20193;-73
2022/08/18 06:19:03;;;;;;;67.32;50.65;;;;;;;;;;4995030;28;20311;-74
2022/08/18 06:21:36;;;;;;;64.43;49.40;;;;;;;;;;4994998;28;20193;-74
2022/08/18 06:24:11;;;;;;;66.03;50.08;;;;;;;;;;4994981;28;20213;-75
2022/08/18 06:26:45;;;;;;;65.55;49.92;;;;;;;;;;4995241;28;20198;-74
2022/08/18 06:29:23;;;;;;;62.08;48.65;;;;;;;;;;4995081;28;20697;-74
2022/08/18 06:31:56;;;;;;;62.03;48.92;;;;;;;;;;4994665;28;20193;-74
2022/08/18 06:34:30;;;;;;;58.38;47.55;;;;;;;;;;4995774;28;20606;-74
2022/08/18 06:37:01;;;;;;;60.55;48.35;;;;;;;;;;4994575;28;20213;-74
2022/08/18 06:39:32;;;;;;;58.30;47.28;;;;;;;;;;4994680;28;20217;-74
2022/08/18 06:42:04;;;;;;;54.28;45.45;;;;;;;;;;4994803;28;20221;-74
2022/08/18 06:44:35;;;;;;;52.85;45.35;;;;;;;;;;4994818;28;20216;-74
2022/08/18 06:47:05;;;;;;;56.35;45.75;;;;;;;;;;4993896;28;20200;-73
2022/08/18 06:49:38;;;;;;;52.25;44.55;;;;;;;;;;4993799;28;20312;-74
2022/08/18 06:52:27;;;;;;;50.08;43.45;;;;;;;;;;4993822;28;20212;-74
2022/08/18 06:54:57;;;;;;;56.50;46.13;;;;;;;;;;4994211;28;20204;-75
2022/08/18 06:57:30;;;;;;;51.55;44.40;;;;;;;;;;4995085;28;20212;-74
2022/08/18 07:00:00;;;;;;;51.65;43.83;;;;;;;;;;4994641;28;20225;-75
2022/08/18 07:02:46;;;;;;;50.75;43.92;;;;;;;;;;4995047;28;20650;-73
2022/08/18 07:05:22;;;;;;;49.58;43.08;;;;;;;;;;4994896;28;20193;-74
2022/08/18 07:08:06;;;;;;;52.00;44.65;;;;;;;;;;4994523;28;20199;-74
2022/08/18 07:10:35;;;;;;;49.17;43.78;;;;;;;;;;4993208;28;20243;-75
2022/08/18 07:13:15;;;;;;;47.05;41.92;;;;;;;;;;4994472;28;20659;-74
2022/08/18 07:15:44;;;;;;;47.25;42.15;;;;;;;;;;4974913;28;20221;-74
2022/08/18 07:18:13;;;;;;;46.55;41.28;;;;;;;;;;4974461;28;20643;-75
2022/08/18 07:20:42;;;;;;;51.08;42.78;;;;;;;;;;4975054;28;20213;-74
2022/08/18 07:23:21;;;;;;;49.78;42.00;;;;;;;;;;4974930;28;20694;-74
2022/08/18 07:25:51;;;;;;;46.33;39.63;;;;;;;;;;4975038;28;20194;-74
2022/08/18 07:28:29;;;;;;;43.22;38.53;;;;;;;;;;4974975;28;20601;-75
2022/08/18 07:31:10;;;;;;;43.92;38.92;;;;;;;;;;4974746;28;20190;-75
2022/08/18 07:33:47;;;;;;;43.22;38.58;;;;;;;;;;4976452;28;20190;-74
2022/08/18 07:36:16;;;;;;;42.53;36.85;;;;;;;;;;4974735;28;20190;-75
2022/08/18 07:38:47;;;;;;;41.42;36.92;;;;;;;;;;4974663;28;20222;-75
2022/08/18 07:41:19;;;;;;;40.10;35.80;;;;;;;;;;4974214;28;20201;-75
2022/08/18 07:43:54;;;;;;;37.60;33.60;;;;;;;;;;4974272;28;20209;-74
2022/08/18 07:46:26;;;;;;;38.42;33.05;;;;;;;;;;4974482;28;20321;-74
2022/08/18 07:48:57;;;;;;;40.42;35.28;;;;;;;;;;4974572;28;20228;-76
2022/08/18 07:51:30;;;;;;;39.75;34.85;;;;;;;;;;4974601;28;20190;-76
2022/08/18 07:54:08;;;;;;;40.13;35.42;;;;;;;;;;4974537;28;20209;-76
2022/08/18 07:56:55;;;;;;;38.30;34.20;;;;;;;;;;4974508;28;20197;-75
2022/08/18 07:59:27;;;;;;;36.50;32.60;;;;;;;;;;4977571;28;20234;-76
2022/08/18 08:02:01;;;;;;;35.25;31.55;;;;;;;;;;4978211;28;20201;-75
2022/08/18 08:04:34;;;;;;;38.85;34.75;;;;;;;;;;4977984;28;20214;-75
2022/08/18 08:07:05;;;;;;;36.00;32.17;;;;;;;;;;4978263;28;20201;-75
2022/08/18 08:09:59;;;;;;;35.72;32.03;;;;;;;;;;4978322;28;20226;-76
2022/08/18 08:12:31;;;;;;;33.05;29.42;;;;;;;;;;4978683;28;20580;-76
2022/08/18 08:15:06;;;;;;;31.50;28.33;;;;;;;;;;4978483;28;20232;-76
2022/08/18 08:17:39;;;;;;;35.28;31.48;;;;;;;;;;4978239;28;20275;-75
2022/08/18 08:20:12;;;;;;;31.15;27.85;;;;;;;;;;4978055;28;20695;-75
2022/08/18 08:22:53;;;;;;;32.40;29.10;;;;;;;;;;4978295;28;20563;-76
2022/08/18 08:25:24;;;;;;;32.10;28.90;;;;;;;;;;4981471;28;20213;-74
2022/08/18 08:28:20;;;;;;;30.90;27.75;;;;;;;;;;4997450;28;20244;-75
2022/08/18 08:30:54;;;;;;;27.10;24.30;;;;;;;;;;4997148;28;20197;-76
2022/08/18 08:33:25;;;;;;;27.88;25.02;;;;;;;;;;4997061;28;20190;-76
2022/08/18 08:35:57;;;;;;;28.10;25.20;;;;;;;;;;4997431;28;20197;-76
2022/08/18 08:38:28;;;;;;;29.25;26.35;;;;;;;;;;4996966;28;20200;-75
2022/08/18 08:41:13;;;;;;;28.48;25.58;;;;;;;;;;4997705;28;20185;-75
2022/08/18 08:43:43;;;;;;;27.95;25.08;;;;;;;;;;4996756;28;20213;-76
2022/08/18 08:46:16;;;;;;;25.88;23.27;;;;;;;;;;4997096;28;20197;-76
2022/08/18 08:48:46;;;;;;;25.83;23.13;;;;;;;;;;4996617;28;20225;-75
2022/08/18 08:51:23;;;;;;;22.85;20.65;;;;;;;;;;4997006;28;20623;-76
2022/08/18 08:54:00;;;;;;;23.13;20.73;;;;;;;;;;4996144;28;20578;-76
2022/08/18 08:56:30;;;;;;;22.63;20.42;;;;;;;;;;4996527;28;20185;-76
2022/08/18 08:59:00;;;;;;;23.17;20.77;;;;;;;;;;4996746;28;20639;-75
2022/08/18 09:01:44;;;;;;;22.10;19.67;;;;;;;;;;4997280;28;20642;-76
2022/08/18 09:04:35;;;;;;;23.55;21.15;;;;;;;;;;4995349;28;20233;-75
2022/08/18 09:07:42;;;;;;;21.90;19.35;;;;;;;;;;4995961;28;20674;-74
2022/08/18 09:10:33;;;;;;;20.33;18.33;;;;;;;;;;4995805;28;20644;-75
2022/08/18 09:13:13;;;;;;;22.40;20.27;;;;;;;;;;4995367;28;20661;-74
2022/08/18 09:15:56;;;;;;;21.45;19.45;;;;;;;;;;4985804;28;20223;-75
2022/08/18 09:18:54;;;;;;;22.63;20.42;;;;;;;;;;4993211;28;20276;-75
2022/08/18 09:21:33;;;;;;;21.20;18.15;;;;;;;;;;4980052;28;20280;-75
2022/08/18 09:24:21;;;;;;;20.63;18.40;;;;;;;;;;4986976;28;20220;-75
2022/08/18 09:27:17;;;;;;;20.92;18.45;;;;;;;;;;4990632;28;20193;-76
2022/08/18 09:29:57;;;;;;;20.85;18.75;;;;;;;;;;4990539;28;20229;-75
2022/08/18 09:32:55;;;;;;;20.02;18.08;;;;;;;;;;4987485;28;20211;-75
2022/08/18 09:35:38;;;;;;;17.92;16.13;;;;;;;;;;4976389;28;20553;-76
2022/08/18 09:44:08;;;;;;;16.48;14.88;;;;;;;;;;4964471;28;20206;-75
2022/08/18 09:46:56;;;;;;;16.73;15.02;;;;;;;;;;4976122;28;20209;-75
2022/08/18 09:49:41;;;;;;;15.88;14.38;;;;;;;;;;4975202;28;20235;-76
2022/08/18 09:52:44;;;;;;;15.80;14.38;;;;;;;;;;4976477;28;20662;-76
2022/08/18 09:55:28;;;;;;;16.20;14.43;;;;;;;;;;4923151;28;20208;-75
2022/08/18 09:58:12;;;;;;;15.52;14.13;;;;;;;;;;4975730;28;20206;-76
2022/08/18 10:00:41;;;;;;;17.55;15.77;;;;;;;;;;4976490;28;20194;-76
2022/08/18 10:03:25;;;;;;;16.33;14.82;;;;;;;;;;4976124;28;20214;-76
2022/08/18 10:06:05;;;;;;;16.02;14.43;;;;;;;;;;4976352;28;20253;-75
2022/08/18 10:08:56;;;;;;;15.70;14.13;;;;;;;;;;4976111;28;20225;-76
2022/08/18 10:11:38;;;;;;;17.48;15.88;;;;;;;;;;4976133;28;20190;-76
2022/08/18 10:14:14;;;;;;;18.20;16.35;;;;;;;;;;4976439;28;20212;-75
2022/08/18 10:16:50;;;;;;;19.65;17.65;;;;;;;;;;4976046;28;20190;-76
2022/08/18 10:19:42;;;;;;;17.67;15.77;;;;;;;;;;4975043;28;20226;-76
2022/08/18 10:22:13;;;;;;;25.52;16.63;;;;;;;;;;4974587;28;20208;-76
2022/08/18 10:24:47;;;;;;;17.40;15.75;;;;;;;;;;4975789;28;20244;-76
2022/08/18 10:27:31;;;;;;;16.73;15.18;;;;;;;;;;4975610;28;20195;-76
2022/08/18 10:29:59;;;;;;;17.10;15.52;;;;;;;;;;4975901;28;20230;-76
2022/08/18 10:32:39;;;;;;;16.52;15.02;;;;;;;;;;4975889;28;20300;-77
2022/08/18 10:35:30;;;;;;;16.70;15.10;;;;;;;;;;4975457;28;20186;-76
2022/08/18 10:38:02;;;;;;;16.27;14.77;;;;;;;;;;4975292;28;20245;-75
2022/08/18 10:40:31;;;;;;;15.63;13.82;;;;;;;;;;4975508;28;20221;-76
2022/08/18 10:43:06;;;;;;;15.85;14.35;;;;;;;;;;4975545;28;20597;-76
2022/08/18 10:45:55;;;;;;;15.32;13.98;;;;;;;;;;4975029;28;20217;-75
2022/08/18 10:48:44;;;;;;;16.45;14.73;;;;;;;;;;4975178;28;20234;-76
2022/08/18 10:51:19;;;;;;;16.08;14.52;;;;;;;;;;4975136;28;20260;-77
2022/08/18 10:53:52;;;;;;;14.43;13.05;;;;;;;;;;4975191;28;20661;-74
2022/08/18 10:56:26;;;;;;;12.70;11.60;;;;;;;;;;4974983;28;20190;-76
2022/08/18 10:58:59;;;;;;;15.30;13.90;;;;;;;;;;4975212;28;20647;-75
2022/08/18 11:01:42;;;;;;;14.07;12.77;;;;;;;;;;4975163;28;20198;-77
2022/08/18 11:04:26;;;;;;;14.07;12.68;;;;;;;;;;4975139;28;20557;-76
2022/08/18 11:07:18;;;;;;;14.10;12.55;;;;;;;;;;4974969;28;20202;-76
2022/08/18 11:09:49;;;;;;;15.70;11.32;;;;;;;;;;4974605;28;20229;-76
2022/08/18 11:12:45;;;;;;;13.13;11.82;;;;;;;;;;4974838;28;20285;-76
2022/08/18 11:15:18;;;;;;;11.95;10.93;;;;;;;;;;4974726;28;20213;-76
2022/08/18 11:18:05;;;;;;;11.95;10.20;;;;;;;;;;4975230;28;20217;-77
2022/08/18 11:20:41;;;;;;;11.95;10.85;;;;;;;;;;4974727;28;20304;-75
2022/08/18 11:23:15;;;;;;;13.65;10.50;;;;;;;;;;4974609;28;20190;-76
2022/08/18 11:25:44;;;;;;;12.95;11.57;;;;;;;;;;4974516;28;20317;-76
2022/08/18 11:28:16;;;;;;;12.80;11.48;;;;;;;;;;4975094;28;20640;-76
2022/08/18 11:30:46;;;;;;;12.68;10.85;;;;;;;;;;4974852;28;20698;-76
2022/08/18 11:33:16;;;;;;;13.27;10.98;;;;;;;;;;4974298;28;20197;-76
2022/08/18 11:35:56;;;;;;;11.98;10.73;;;;;;;;;;4974882;28;20204;-76
2022/08/18 11:38:26;;;;;;;12.43;11.23;;;;;;;;;;4974868;28;20217;-75
2022/08/18 11:41:11;;;;;;;11.80;10.77;;;;;;;;;;4974789;28;20190;-77
2022/08/18 11:43:41;;;;;;;12.13;10.98;;;;;;;;;;4974805;28;20197;-76
2022/08/18 11:46:22;;;;;;;11.70;10.60;;;;;;;;;;4974615;28;20304;-77
2022/08/18 11:48:56;;;;;;;11.20;10.20;;;;;;;;;;4974608;28;20236;-76
2022/08/18 11:51:27;;;;;;;11.82;10.63;;;;;;;;;;4974387;28;20209;-77
2022/08/18 11:53:58;;;;;;;11.30;10.23;;;;;;;;;;4974852;28;20631;-77
2022/08/18 11:56:46;;;;;;;10.55;9.55;;;;;;;;;;4975138;28;20256;-76
2022/08/18 11:59:34;;;;;;;11.38;10.38;;;;;;;;;;4973994;28;20232;-74
2022/08/18 12:02:25;;;;;;;10.90;9.90;;;;;;;;;;4974453;28;20257;-75
2022/08/18 12:04:55;;;;;;;10.90;9.85;;;;;;;;;;4974114;28;20197;-77
2022/08/18 12:07:30;;;;;;;10.20;9.20;;;;;;;;;;4974413;28;20196;-77
2022/08/18 12:10:17;;;;;;;11.20;10.15;;;;;;;;;;4974504;28;20253;-77
2022/08/18 12:12:53;;;;;;;11.07;9.45;;;;;;;;;;4974221;28;20663;-77
2022/08/18 12:15:29;;;;;;;9.60;8.70;;;;;;;;;;4972490;28;20302;-75
2022/08/18 12:18:16;;;;;;;8.52;7.82;;;;;;;;;;4972262;28;20186;-76
2022/08/18 12:20:56;;;;;;;9.52;8.27;;;;;;;;;;4972720;28;20206;-76
2022/08/18 12:23:27;;;;;;;8.23;7.35;;;;;;;;;;4972478;28;20206;-76
2022/08/18 12:26:18;;;;;;;8.68;7.88;;;;;;;;;;4971242;28;20304;-76
2022/08/18 12:29:06;;;;;;;8.55;7.75;;;;;;;;;;4972486;28;20233;-75
2022/08/18 12:31:55;;;;;;;6.88;6.28;;;;;;;;;;4972665;28;20206;-76
2022/08/18 12:34:26;;;;;;;6.07;5.47;;;;;;;;;;4972689;28;20548;-76
2022/08/18 12:36:59;;;;;;;6.30;5.70;;;;;;;;;;4972335;28;20217;-75
2022/08/18 12:39:31;;;;;;;6.90;6.20;;;;;;;;;;4972512;28;20605;-76
2022/08/18 12:41:59;;;;;;;5.80;5.30;;;;;;;;;;4972644;28;20229;-74
2022/08/18 12:47:27;;;;;;;5.57;4.78;;;;;;;;;;4974043;28;20225;-77
2022/08/18 12:49:58;;;;;;;5.78;5.22;;;;;;;;;;4974485;28;20244;-77
2022/08/18 12:52:28;;;;;;;5.35;4.90;;;;;;;;;;4974745;28;20537;-76
2022/08/18 12:55:00;;;;;;;5.05;4.65;;;;;;;;;;4975713;28;20582;-76
2022/08/18 12:57:30;;;;;;;4.47;4.10;;;;;;;;;;4975584;28;20206;-76
2022/08/18 13:00:19;;;;;;;5.18;4.63;;;;;;;;;;4975701;28;20233;-76
2022/08/18 13:02:55;;;;;;;4.35;3.95;;;;;;;;;;4975546;28;20281;-76
2022/08/18 13:05:24;;;;;;;4.55;4.10;;;;;;;;;;4975396;28;20210;-75
2022/08/18 13:07:58;;;;;;;4.25;3.65;;;;;;;;;;4975905;28;20221;-76
2022/08/18 13:10:28;;;;;;;4.20;3.78;;;;;;;;;;4975901;28;20222;-76
2022/08/18 13:13:14;;;;;;;5.18;3.92;;;;;;;;;;4975793;28;20202;-76
2022/08/18 13:15:49;;;;;;;4.32;3.92;;;;;;;;;;4975673;28;20746;-75
2022/08/18 13:18:29;;;;;;;3.90;3.60;;;;;;;;;;4975051;28;20304;-76
2022/08/18 13:20:57;;;;;;;3.90;3.60;;;;;;;;;;4975454;28;20686;-76
2022/08/18 13:23:27;;;;;;;3.53;3.22;;;;;;;;;;4975128;28;20201;-75
2022/08/18 13:25:58;;;;;;;4.22;3.92;;;;;;;;;;4975008;28;20234;-75
2022/08/18 13:28:30;;;;;;;3.92;3.50;;;;;;;;;;4975631;28;20217;-76
2022/08/18 13:31:03;;;;;;;3.72;3.42;;;;;;;;;;4975521;28;20557;-76
2022/08/18 13:33:32;;;;;;;3.55;3.22;;;;;;;;;;4974923;28;20213;-76
2022/08/18 13:36:21;;;;;;;4.00;3.63;;;;;;;;;;4974890;28;20260;-76
2022/08/18 13:38:52;;;;;;;4.30;3.50;;;;;;;;;;4975306;28;20225;-77
2022/08/18 13:41:23;;;;;;;4.18;3.40;;;;;;;;;;4975246;28;20198;-76
2022/08/18 13:44:00;;;;;;;3.55;3.25;;;;;;;;;;4986253;28;20208;-76
2022/08/18 13:46:33;;;;;;;5.50;3.30;;;;;;;;;;4993961;28;20213;-76
2022/08/18 13:49:02;;;;;;;4.00;3.70;;;;;;;;;;4994578;28;20233;-75
2022/08/18 13:51:31;;;;;;;4.80;3.42;;;;;;;;;;4994525;28;20205;-75
2022/08/18 13:54:01;;;;;;;6.10;3.55;;;;;;;;;;4994548;28;20201;-75
2022/08/18 13:56:51;;;;;;;3.80;3.50;;;;;;;;;;4993455;28;20252;-77
2022/08/18 13:59:20;;;;;;;3.55;3.25;;;;;;;;;;4994532;28;20232;-76
2022/08/18 14:01:50;;;;;;;4.00;3.70;;;;;;;;;;4993626;28;20209;-76
2022/08/18 14:04:20;;;;;;;3.67;3.38;;;;;;;;;;4995078;28;20281;-77
2022/08/18 14:06:51;;;;;;;4.00;3.70;;;;;;;;;;4993534;28;20225;-77
2022/08/18 14:09:27;;;;;;;3.58;3.38;;;;;;;;;;4994198;28;20263;-77
2022/08/18 14:12:08;;;;;;;3.78;3.42;;;;;;;;;;4994050;28;20209;-76
2022/08/18 14:14:51;;;;;;;5.18;3.88;;;;;;;;;;4993870;28;20303;-77
2022/08/18 14:17:20;;;;;;;4.47;3.63;;;;;;;;;;4994569;28;20213;-77
2022/08/18 14:28:09;;;;;;;4.10;3.63;;;;;;;;;;4991420;28;20708;-77
2022/08/18 14:30:39;;;;;;;5.47;3.67;;;;;;;;;;4992038;28;20565;-77
2022/08/18 14:33:19;;;;;;;4.55;3.78;;;;;;;;;;4992988;28;20201;-78
2022/08/18 14:36:02;;;;;;;4.20;3.80;;;;;;;;;;4994233;28;20231;-77
2022/08/18 14:38:37;;;;;;;4.13;3.75;;;;;;;;;;4995415;28;20224;-77
2022/08/18 14:41:06;;;;;;;6.25;3.65;;;;;;;;;;4995014;28;20564;-77
2022/08/18 14:43:36;;;;;;;4.28;3.65;;;;;;;;;;4991521;28;20205;-77
2022/08/18 14:46:26;;;;;;;5.65;4.30;;;;;;;;;;4991625;28;20288;-77
2022/08/18 14:48:59;;;;;;;4.63;4.22;;;;;;;;;;4993829;28;20629;-77
2022/08/18 14:51:31;;;;;;;4.20;3.80;;;;;;;;;;4993610;28;20206;-77
2022/08/18 14:54:01;;;;;;;5.28;4.25;;;;;;;;;;4987509;28;20205;-77
2022/08/18 14:56:29;;;;;;;6.65;4.68;;;;;;;;;;4993609;28;20205;-78
2022/08/18 14:59:07;;;;;;;4.70;4.20;;;;;;;;;;4985170;28;20232;-76
2022/08/18 15:01:35;;;;;;;5.15;4.43;;;;;;;;;;4993568;28;20205;-77
2022/08/18 15:04:11;;;;;;;6.13;4.70;;;;;;;;;;4994100;28;20189;-77
2022/08/18 15:06:46;;;;;;;6.53;4.78;;;;;;;;;;4991848;28;20736;-78
2022/08/18 15:09:24;;;;;;;5.65;4.97;;;;;;;;;;4992443;28;20260;-77
2022/08/18 15:11:56;;;;;;;7.40;5.20;;;;;;;;;;4993216;28;20200;-77
2022/08/18 15:14:27;;;;;;;5.40;4.60;;;;;;;;;;4982808;28;20224;-78
2022/08/18 15:17:00;;;;;;;7.60;4.50;;;;;;;;;;4993288;28;20227;-78
2022/08/18 15:19:30;;;;;;;4.85;4.30;;;;;;;;;;4986966;28;20217;-78
2022/08/18 15:27:52;;;;;;;5.82;3.70;;;;;;;;;;4993353;28;20244;-77
2022/08/18 15:30:22;;;;;;;5.07;4.15;;;;;;;;;;4993490;28;20221;-77
2022/08/18 15:32:51;;;;;;;4.10;3.70;;;;;;;;;;4993876;28;20658;-78
2022/08/18 15:35:20;;;;;;;4.15;3.35;;;;;;;;;;4996261;28;20208;-77
2022/08/18 15:37:49;;;;;;;7.20;3.90;;;;;;;;;;4974203;28;20248;-77
2022/08/18 15:40:19;;;;;;;4.35;4.00;;;;;;;;;;4991557;28;20216;-78